createdAt,value
2017-10-23T00:00:33.889Z,9.76
2017-10-23T00:01:34.445Z,9.73
2017-10-23T00:02:35.013Z,9.76
2017-10-23T00:03:35.582Z,9.74
2017-10-23T00:04:36.150Z,9.77
2017-10-23T00:05:36.728Z,9.68
2017-10-23T00:06:37.299Z,9.74
2017-10-23T00:07:37.867Z,9.77
2017-10-23T00:08:38.437Z,9.74
2017-10-23T00:09:39.006Z,9.79
2017-10-23T00:10:39.577Z,9.73
2017-10-23T00:11:40.143Z,9.76
2017-10-23T00:12:40.723Z,9.76
2017-10-23T00:13:41.291Z,9.77
2017-10-23T00:14:41.868Z,9.69
2017-10-23T00:15:42.439Z,9.74
2017-10-23T00:16:43.007Z,9.74
2017-10-23T00:17:43.585Z,9.80
2017-10-23T00:18:44.143Z,9.76
2017-10-23T00:19:44.714Z,9.76
2017-10-23T00:20:45.282Z,9.79
2017-10-23T00:21:45.853Z,9.76
2017-10-23T00:22:46.421Z,9.74
2017-10-23T00:23:46.990Z,9.77
2017-10-23T00:24:47.558Z,9.69
2017-10-23T00:25:48.126Z,9.79
2017-10-23T00:26:48.705Z,9.73
2017-10-23T00:27:49.275Z,9.66
2017-10-23T00:28:49.844Z,9.77
2017-10-23T00:29:50.414Z,9.79
2017-10-23T00:30:50.985Z,9.77
2017-10-23T00:31:51.553Z,9.77
2017-10-23T00:32:52.122Z,9.80
2017-10-23T00:33:52.689Z,9.79
2017-10-23T00:34:53.259Z,9.76
2017-10-23T00:35:53.827Z,9.79
2017-10-23T00:36:54.397Z,9.76
2017-10-23T00:37:54.964Z,9.74
2017-10-23T00:38:55.534Z,9.77
2017-10-23T00:39:56.101Z,9.82
2017-10-23T00:40:56.672Z,9.76
2017-10-23T00:41:57.240Z,9.77
2017-10-23T00:42:57.820Z,9.69
2017-10-23T00:43:58.376Z,9.84
2017-10-23T00:44:58.947Z,9.69
2017-10-23T00:45:59.516Z,9.77
2017-10-23T00:47:00.084Z,9.77
2017-10-23T00:48:00.652Z,9.79
2017-10-23T00:49:01.220Z,9.76
2017-10-23T00:50:01.787Z,9.77
2017-10-23T00:51:02.360Z,9.80
2017-10-23T00:52:02.925Z,9.84
2017-10-23T00:53:03.493Z,9.82
2017-10-23T00:54:04.062Z,9.79
2017-10-23T00:55:04.633Z,9.80
2017-10-23T00:56:05.200Z,9.76
2017-10-23T00:57:05.783Z,9.79
2017-10-23T00:58:06.342Z,9.79
2017-10-23T00:59:06.905Z,9.76
2017-10-23T01:00:07.474Z,9.76
2017-10-23T01:01:08.043Z,9.77
2017-10-23T01:02:08.622Z,9.72
2017-10-23T01:03:09.191Z,9.79
2017-10-23T01:04:09.760Z,9.74
2017-10-23T01:05:10.330Z,9.74
2017-10-23T01:06:10.900Z,9.68
2017-10-23T01:07:11.469Z,9.74
2017-10-23T01:08:12.040Z,9.64
2017-10-23T01:09:12.609Z,9.74
2017-10-23T01:10:14.595Z,9.69
2017-10-23T01:11:15.176Z,9.76
2017-10-23T01:12:15.745Z,9.74
2017-10-23T01:13:16.315Z,9.79
2017-10-23T01:14:16.897Z,9.76
2017-10-23T01:15:17.478Z,9.69
2017-10-23T01:16:18.046Z,9.74
2017-10-23T01:17:18.615Z,9.72
2017-10-23T01:18:19.183Z,9.79
2017-10-23T01:19:19.753Z,9.66
2017-10-23T01:20:20.323Z,9.74
2017-10-23T01:21:20.894Z,9.69
2017-10-23T01:22:21.464Z,9.76
2017-10-23T01:23:22.035Z,9.74
2017-10-23T01:24:22.602Z,9.74
2017-10-23T01:25:23.174Z,9.74
2017-10-23T01:26:23.742Z,9.61
2017-10-23T01:27:24.312Z,9.64
2017-10-23T01:28:24.880Z,9.66
2017-10-23T01:29:25.451Z,9.68
2017-10-23T01:30:26.024Z,9.69
2017-10-23T01:31:26.618Z,9.68
2017-10-23T01:32:27.158Z,9.66
2017-10-23T01:33:27.726Z,9.73
2017-10-23T01:34:28.299Z,9.74
2017-10-23T01:35:28.865Z,9.77
2017-10-23T01:36:29.449Z,9.72
2017-10-23T01:37:30.018Z,9.66
2017-10-23T01:38:30.589Z,9.65
2017-10-23T01:39:31.157Z,9.68
2017-10-23T01:40:31.727Z,9.69
2017-10-23T01:41:32.295Z,9.64
2017-10-23T01:42:32.865Z,9.68
2017-10-23T01:43:33.434Z,9.68
2017-10-23T01:44:34.003Z,9.73
2017-10-23T01:45:34.571Z,9.66
2017-10-23T01:46:35.141Z,9.73
2017-10-23T01:47:35.714Z,9.65
2017-10-23T01:48:36.279Z,9.74
2017-10-23T01:49:36.850Z,9.76
2017-10-23T01:50:37.420Z,9.76
2017-10-23T01:51:37.991Z,9.76
2017-10-23T01:52:38.559Z,9.76
2017-10-23T01:53:39.130Z,9.72
2017-10-23T01:54:39.698Z,9.74
2017-10-23T01:55:40.268Z,9.77
2017-10-23T01:56:40.848Z,9.77
2017-10-23T01:57:41.418Z,9.79
2017-10-23T01:58:41.989Z,9.82
2017-10-23T01:59:42.567Z,9.83
2017-10-23T02:00:43.129Z,9.83
2017-10-23T02:01:43.697Z,9.84
2017-10-23T02:02:44.267Z,9.84
2017-10-23T02:03:44.837Z,9.83
2017-10-23T02:04:45.406Z,9.86
2017-10-23T02:05:45.976Z,9.92
2017-10-23T02:06:46.545Z,9.87
2017-10-23T02:07:47.126Z,9.86
2017-10-23T02:08:47.694Z,9.84
2017-10-23T02:09:48.265Z,9.83
2017-10-23T02:10:48.835Z,9.80
2017-10-23T02:11:49.415Z,9.79
2017-10-23T02:12:49.996Z,9.89
2017-10-23T02:13:50.564Z,9.91
2017-10-23T02:14:51.133Z,9.92
2017-10-23T02:15:51.704Z,9.89
2017-10-23T02:16:52.278Z,9.87
2017-10-23T02:17:52.841Z,9.91
2017-10-23T02:18:53.411Z,9.95
2017-10-23T02:19:53.979Z,9.87
2017-10-23T02:20:54.549Z,9.94
2017-10-23T02:21:55.117Z,9.91
2017-10-23T02:22:55.686Z,9.91
2017-10-23T02:23:56.255Z,9.92
2017-10-23T02:24:56.823Z,9.92
2017-10-23T02:25:57.393Z,9.92
2017-10-23T02:26:57.962Z,9.92
2017-10-23T02:27:58.534Z,9.97
2017-10-23T02:28:59.119Z,9.89
2017-10-23T02:29:59.685Z,9.87
2017-10-23T02:31:00.253Z,9.91
2017-10-23T02:32:00.822Z,9.89
2017-10-23T02:33:01.404Z,9.91
2017-10-23T02:34:01.967Z,9.91
2017-10-23T02:35:02.542Z,9.95
2017-10-23T02:36:03.111Z,9.89
2017-10-23T02:37:03.680Z,9.87
2017-10-23T02:38:04.250Z,9.86
2017-10-23T02:39:04.820Z,9.83
2017-10-23T02:40:05.402Z,9.77
2017-10-23T02:41:05.970Z,9.91
2017-10-23T02:42:06.540Z,9.80
2017-10-23T02:43:07.109Z,9.86
2017-10-23T02:44:07.679Z,9.76
2017-10-23T02:45:08.262Z,9.79
2017-10-23T02:46:08.829Z,9.80
2017-10-23T02:47:09.402Z,9.80
2017-10-23T02:48:09.970Z,9.79
2017-10-23T02:49:10.541Z,9.79
2017-10-23T02:50:11.110Z,9.80
2017-10-23T02:51:11.681Z,9.84
2017-10-23T02:52:12.250Z,9.79
2017-10-23T02:53:12.835Z,9.79
2017-10-23T02:54:13.411Z,9.77
2017-10-23T02:55:13.979Z,9.83
2017-10-23T02:56:14.549Z,9.82
2017-10-23T02:57:15.132Z,9.84
2017-10-23T02:58:15.710Z,9.74
2017-10-23T02:59:16.280Z,9.76
2017-10-23T03:00:16.852Z,9.82
2017-10-23T03:01:17.422Z,9.80
2017-10-23T03:02:17.993Z,9.83
2017-10-23T03:03:18.562Z,9.80
2017-10-23T03:04:19.132Z,9.80
2017-10-23T03:05:19.713Z,9.76
2017-10-23T03:06:20.282Z,9.80
2017-10-23T03:07:20.852Z,9.83
2017-10-23T03:08:21.422Z,9.74
2017-10-23T03:09:21.993Z,9.86
2017-10-23T03:10:22.562Z,9.83
2017-10-23T03:11:23.133Z,9.79
2017-10-23T03:12:23.702Z,9.86
2017-10-23T03:13:24.272Z,9.86
2017-10-23T03:14:24.842Z,9.86
2017-10-23T03:15:25.410Z,9.86
2017-10-23T03:16:25.979Z,9.82
2017-10-23T03:17:26.548Z,9.77
2017-10-23T03:18:27.116Z,9.79
2017-10-23T03:19:27.685Z,9.76
2017-10-23T03:20:28.256Z,9.76
2017-10-23T03:21:28.821Z,9.79
2017-10-23T03:22:29.390Z,9.87
2017-10-23T03:23:29.972Z,9.83
2017-10-23T03:24:30.543Z,9.80
2017-10-23T03:25:31.111Z,9.79
2017-10-23T03:26:31.682Z,9.79
2017-10-23T03:27:32.251Z,9.77
2017-10-23T03:28:32.820Z,9.77
2017-10-23T03:29:33.389Z,9.84
2017-10-23T03:30:33.959Z,9.76
2017-10-23T03:31:34.531Z,9.83
2017-10-23T03:32:35.108Z,9.82
2017-10-23T03:33:35.679Z,9.76
2017-10-23T03:34:36.248Z,9.79
2017-10-23T03:35:36.818Z,9.76
2017-10-23T03:36:37.391Z,9.82
2017-10-23T03:37:37.976Z,9.86
2017-10-23T03:38:38.548Z,9.80
2017-10-23T03:39:39.117Z,9.83
2017-10-23T03:40:39.698Z,9.76
2017-10-23T03:41:40.268Z,9.77
2017-10-23T03:42:40.837Z,9.76
2017-10-23T03:43:41.408Z,9.80
2017-10-23T03:44:41.976Z,9.83
2017-10-23T03:45:42.546Z,9.77
2017-10-23T03:46:43.116Z,9.76
2017-10-23T03:47:43.685Z,9.82
2017-10-23T03:48:44.252Z,9.84
2017-10-23T03:49:44.824Z,9.79
2017-10-23T03:50:45.405Z,9.80
2017-10-23T03:51:45.974Z,9.84
2017-10-23T03:52:46.544Z,9.79
2017-10-23T03:53:47.113Z,9.79
2017-10-23T03:54:47.692Z,9.82
2017-10-23T03:55:48.260Z,9.80
2017-10-23T03:56:48.830Z,9.83
2017-10-23T03:57:49.400Z,9.83
2017-10-23T03:58:49.973Z,9.89
2017-10-23T03:59:50.542Z,9.83
2017-10-23T04:00:51.111Z,9.83
2017-10-23T04:01:51.681Z,9.83
2017-10-23T04:02:52.250Z,9.83
2017-10-23T04:03:52.820Z,9.80
2017-10-23T04:04:53.390Z,9.80
2017-10-23T04:05:53.959Z,9.79
2017-10-23T04:06:54.527Z,9.76
2017-10-23T04:07:55.098Z,9.69
2017-10-23T04:08:55.678Z,9.79
2017-10-23T04:09:56.247Z,9.73
2017-10-23T04:10:56.817Z,9.77
2017-10-23T04:11:57.398Z,9.76
2017-10-23T04:12:57.967Z,9.79
2017-10-23T04:13:58.538Z,9.79
2017-10-23T04:14:59.108Z,9.77
2017-10-23T04:15:59.680Z,9.82
2017-10-23T04:17:00.249Z,9.80
2017-10-23T04:18:00.820Z,9.94
2017-10-23T04:19:01.391Z,9.86
2017-10-23T04:20:01.961Z,9.89
2017-10-23T04:21:02.530Z,9.92
2017-10-23T04:22:03.100Z,9.86
2017-10-23T04:23:03.669Z,9.80
2017-10-23T04:24:04.238Z,9.84
2017-10-23T04:25:04.807Z,9.84
2017-10-23T04:26:05.375Z,9.86
2017-10-23T04:27:05.954Z,9.83
2017-10-23T04:28:06.514Z,9.91
2017-10-23T04:29:07.086Z,9.86
2017-10-23T04:30:07.666Z,9.87
2017-10-23T04:31:08.235Z,9.79
2017-10-23T04:32:08.809Z,9.89
2017-10-23T04:33:09.376Z,9.86
2017-10-23T04:34:09.942Z,9.84
2017-10-23T04:35:10.510Z,9.86
2017-10-23T04:36:11.083Z,9.89
2017-10-23T04:37:11.650Z,9.87
2017-10-23T04:38:12.219Z,9.89
2017-10-23T04:39:12.789Z,9.89
2017-10-23T04:40:13.361Z,9.87
2017-10-23T04:41:13.930Z,9.87
2017-10-23T04:42:14.503Z,9.86
2017-10-23T04:43:15.071Z,9.91
2017-10-23T04:44:15.651Z,9.95
2017-10-23T04:45:16.219Z,9.94
2017-10-23T04:46:16.801Z,9.92
2017-10-23T04:47:17.383Z,9.94
2017-10-23T04:48:17.953Z,9.87
2017-10-23T04:49:18.522Z,9.97
2017-10-23T04:50:19.094Z,9.89
2017-10-23T04:51:19.663Z,9.94
2017-10-23T04:52:20.233Z,9.87
2017-10-23T04:53:20.803Z,9.91
2017-10-23T04:54:21.371Z,9.94
2017-10-23T04:55:21.957Z,9.89
2017-10-23T04:56:22.509Z,9.92
2017-10-23T04:57:23.077Z,9.94
2017-10-23T04:58:23.646Z,9.94
2017-10-23T04:59:24.226Z,9.94
2017-10-23T05:00:24.797Z,9.94
2017-10-23T05:01:25.368Z,9.89
2017-10-23T05:02:25.937Z,9.98
2017-10-23T05:03:26.510Z,9.97
2017-10-23T05:04:27.076Z,9.99
2017-10-23T05:05:27.647Z,9.95
2017-10-23T05:06:28.215Z,9.98
2017-10-23T05:07:28.785Z,10.01
2017-10-23T05:08:29.355Z,9.95
2017-10-23T05:09:29.923Z,9.98
2017-10-23T05:10:30.494Z,9.99
2017-10-23T05:11:31.115Z,10.05
2017-10-23T05:12:31.685Z,9.99
2017-10-23T05:13:32.255Z,9.99
2017-10-23T05:14:32.830Z,10.01
2017-10-23T05:15:33.394Z,9.98
2017-10-23T05:16:33.964Z,10.02
2017-10-23T05:17:34.532Z,9.98
2017-10-23T05:18:35.102Z,10.01
2017-10-23T05:19:35.672Z,9.98
2017-10-23T05:20:36.239Z,10.12
2017-10-23T05:21:36.809Z,10.02
2017-10-23T05:22:37.380Z,10.02
2017-10-23T05:23:37.950Z,10.01
2017-10-23T05:24:38.521Z,10.13
2017-10-23T05:25:39.093Z,10.13
2017-10-23T05:26:39.663Z,10.10
2017-10-23T05:27:40.236Z,10.13
2017-10-23T05:28:40.807Z,10.10
2017-10-23T05:29:41.377Z,10.04
2017-10-23T05:30:41.958Z,10.09
2017-10-23T05:31:42.527Z,10.12
2017-10-23T05:32:43.109Z,10.02
2017-10-23T05:33:43.681Z,10.10
2017-10-23T05:34:44.252Z,10.17
2017-10-23T05:35:44.824Z,10.16
2017-10-23T05:36:45.394Z,10.17
2017-10-23T05:37:45.965Z,10.19
2017-10-23T05:38:46.535Z,10.15
2017-10-23T05:39:47.105Z,10.16
2017-10-23T05:40:47.674Z,10.13
2017-10-23T05:41:48.243Z,10.15
2017-10-23T05:42:48.832Z,10.15
2017-10-23T05:43:49.396Z,10.10
2017-10-23T05:44:49.967Z,10.13
2017-10-23T05:45:50.537Z,10.12
2017-10-23T05:46:51.105Z,10.16
2017-10-23T05:47:51.676Z,10.16
2017-10-23T05:48:52.246Z,10.16
2017-10-23T05:49:52.816Z,10.12
2017-10-23T05:50:53.387Z,10.17
2017-10-23T05:51:53.959Z,10.07
2017-10-23T05:52:54.532Z,10.15
2017-10-23T05:53:55.103Z,10.07
2017-10-23T05:54:55.676Z,10.17
2017-10-23T05:55:56.244Z,10.16
2017-10-23T05:56:56.813Z,10.12
2017-10-23T05:57:57.384Z,10.10
2017-10-23T05:58:57.953Z,10.17
2017-10-23T05:59:58.526Z,10.16
2017-10-23T06:00:59.106Z,10.13
2017-10-23T06:01:59.682Z,10.16
2017-10-23T06:03:00.246Z,10.19
2017-10-23T06:04:00.817Z,10.16
2017-10-23T06:05:01.386Z,10.20
2017-10-23T06:06:01.959Z,10.17
2017-10-23T06:07:02.531Z,10.10
2017-10-23T06:08:03.102Z,10.16
2017-10-23T06:09:03.678Z,10.10
2017-10-23T06:10:04.244Z,10.09
2017-10-23T06:11:04.816Z,10.19
2017-10-23T06:12:05.384Z,10.12
2017-10-23T06:13:05.955Z,10.12
2017-10-23T06:14:06.526Z,10.12
2017-10-23T06:15:07.108Z,10.13
2017-10-23T06:16:07.680Z,10.19
2017-10-23T06:17:08.251Z,10.10
2017-10-23T06:18:08.825Z,10.12
2017-10-23T06:19:09.400Z,10.22
2017-10-23T06:20:09.970Z,10.15
2017-10-23T06:21:10.542Z,10.15
2017-10-23T06:22:11.127Z,10.16
2017-10-23T06:23:11.708Z,10.16
2017-10-23T06:24:12.282Z,10.23
2017-10-23T06:25:12.854Z,10.20
2017-10-23T06:26:13.426Z,10.16
2017-10-23T06:27:13.997Z,10.13
2017-10-23T06:28:14.568Z,10.17
2017-10-23T06:29:15.140Z,10.19
2017-10-23T06:30:15.713Z,10.16
2017-10-23T06:31:16.285Z,10.15
2017-10-23T06:32:16.856Z,10.23
2017-10-23T06:33:17.429Z,10.13
2017-10-23T06:34:17.999Z,10.17
2017-10-23T06:35:18.570Z,10.16
2017-10-23T06:36:19.141Z,10.16
2017-10-23T06:37:19.715Z,10.17
2017-10-23T06:38:20.288Z,10.19
2017-10-23T06:39:20.859Z,10.22
2017-10-23T06:40:21.443Z,10.20
2017-10-23T06:41:22.015Z,10.17
2017-10-23T06:42:22.586Z,10.16
2017-10-23T06:43:23.157Z,10.25
2017-10-23T06:44:23.730Z,10.17
2017-10-23T06:45:24.312Z,10.26
2017-10-23T06:46:24.883Z,10.17
2017-10-23T06:47:25.455Z,10.15
2017-10-23T06:48:26.026Z,10.20
2017-10-23T06:49:26.599Z,10.19
2017-10-23T06:50:27.169Z,10.16
2017-10-23T06:51:27.743Z,10.28
2017-10-23T06:52:28.326Z,10.20
2017-10-23T06:53:28.897Z,10.31
2017-10-23T06:54:29.469Z,10.20
2017-10-23T06:55:30.041Z,10.15
2017-10-23T06:56:30.612Z,10.20
2017-10-23T06:57:31.184Z,10.26
2017-10-23T06:58:31.757Z,10.26
2017-10-23T06:59:32.330Z,10.16
2017-10-23T07:00:32.900Z,10.28
2017-10-23T07:01:33.471Z,10.17
2017-10-23T07:02:34.044Z,10.19
2017-10-23T07:03:34.614Z,10.20
2017-10-23T07:04:35.186Z,10.25
2017-10-23T07:05:35.759Z,10.28
2017-10-23T07:06:36.342Z,10.16
2017-10-23T07:07:36.915Z,10.19
2017-10-23T07:08:37.498Z,10.19
2017-10-23T07:09:38.088Z,10.22
2017-10-23T07:10:38.655Z,10.20
2017-10-23T07:11:39.225Z,10.25
2017-10-23T07:12:39.795Z,10.16
2017-10-23T07:13:40.372Z,10.23
2017-10-23T07:14:40.940Z,10.20
2017-10-23T07:15:41.513Z,10.20
2017-10-23T07:16:42.084Z,10.15
2017-10-23T07:17:42.655Z,10.20
2017-10-23T07:18:43.225Z,10.20
2017-10-23T07:19:43.808Z,10.19
2017-10-23T07:20:44.391Z,10.28
2017-10-23T07:21:44.951Z,10.28
2017-10-23T07:22:45.522Z,10.20
2017-10-23T07:23:46.097Z,10.31
2017-10-23T07:24:46.668Z,10.26
2017-10-23T07:25:47.241Z,10.33
2017-10-23T07:26:47.813Z,10.23
2017-10-23T07:27:48.385Z,10.25
2017-10-23T07:28:48.955Z,10.28
2017-10-23T07:29:49.528Z,10.28
2017-10-23T07:30:50.112Z,10.30
2017-10-23T07:31:50.696Z,10.28
2017-10-23T07:32:51.269Z,10.33
2017-10-23T07:33:51.840Z,10.33
2017-10-23T07:34:52.413Z,10.30
2017-10-23T07:35:52.987Z,10.25
2017-10-23T07:36:53.562Z,10.35
2017-10-23T07:37:54.134Z,10.49
2017-10-23T07:38:54.705Z,10.38
2017-10-23T07:39:55.281Z,10.41
2017-10-23T07:40:55.863Z,10.51
2017-10-23T07:41:56.447Z,10.38
2017-10-23T07:42:57.019Z,10.49
2017-10-23T07:43:57.591Z,10.42
2017-10-23T07:44:58.176Z,10.51
2017-10-23T07:45:58.746Z,10.41
2017-10-23T07:46:59.346Z,10.51
2017-10-23T07:47:59.905Z,10.44
2017-10-23T07:49:00.476Z,10.56
2017-10-23T07:50:01.050Z,10.40
2017-10-23T07:51:01.624Z,10.56
2017-10-23T07:52:02.196Z,10.40
2017-10-23T07:53:02.770Z,10.53
2017-10-23T07:54:03.342Z,10.60
2017-10-23T07:55:03.917Z,10.49
2017-10-23T07:56:04.488Z,10.54
2017-10-23T07:57:05.074Z,10.57
2017-10-23T07:58:05.648Z,10.60
2017-10-23T07:59:06.220Z,10.68
2017-10-23T08:00:06.795Z,10.72
2017-10-23T08:01:07.378Z,10.68
2017-10-23T08:02:07.963Z,10.68
2017-10-23T08:03:08.535Z,10.74
2017-10-23T08:04:09.106Z,10.74
2017-10-23T08:05:09.679Z,10.68
2017-10-23T08:06:10.252Z,10.74
2017-10-23T08:07:10.826Z,10.76
2017-10-23T08:08:11.409Z,10.72
2017-10-23T08:09:11.983Z,10.84
2017-10-23T08:10:12.557Z,10.92
2017-10-23T08:11:13.129Z,10.92
2017-10-23T08:12:13.719Z,10.81
2017-10-23T08:13:14.277Z,10.94
2017-10-23T08:14:14.866Z,10.97
2017-10-23T08:15:15.431Z,10.96
2017-10-23T08:16:16.003Z,10.94
2017-10-23T08:17:16.583Z,10.90
2017-10-23T08:18:17.151Z,10.97
2017-10-23T08:19:17.724Z,10.99
2017-10-23T08:20:18.295Z,11.04
2017-10-23T08:21:18.870Z,11.04
2017-10-23T08:22:19.445Z,11.05
2017-10-23T08:23:20.020Z,11.05
2017-10-23T08:24:20.594Z,11.15
2017-10-23T08:25:21.167Z,11.12
2017-10-23T08:26:21.744Z,11.08
2017-10-23T08:27:22.318Z,11.08
2017-10-23T08:28:22.892Z,11.18
2017-10-23T08:29:23.468Z,11.19
2017-10-23T08:30:24.041Z,11.17
2017-10-23T08:31:24.616Z,11.17
2017-10-23T08:32:25.202Z,11.27
2017-10-23T08:33:25.774Z,11.22
2017-10-23T08:34:26.347Z,11.27
2017-10-23T08:35:26.923Z,11.32
2017-10-23T08:36:27.499Z,11.27
2017-10-23T08:37:28.083Z,11.27
2017-10-23T08:38:28.665Z,11.36
2017-10-23T08:39:29.232Z,11.35
2017-10-23T08:40:29.818Z,11.36
2017-10-23T08:41:30.392Z,11.33
2017-10-23T08:42:30.964Z,11.32
2017-10-23T08:43:31.539Z,11.35
2017-10-23T08:44:32.114Z,11.26
2017-10-23T08:45:32.686Z,11.30
2017-10-23T08:46:33.264Z,11.22
2017-10-23T08:47:33.844Z,11.30
2017-10-23T08:48:34.418Z,11.29
2017-10-23T08:49:34.997Z,11.44
2017-10-23T08:50:35.577Z,11.45
2017-10-23T08:51:36.151Z,11.37
2017-10-23T08:52:36.740Z,11.36
2017-10-23T08:53:37.302Z,11.35
2017-10-23T08:54:37.877Z,11.47
2017-10-23T08:55:38.462Z,11.43
2017-10-23T08:56:39.036Z,11.47
2017-10-23T08:57:39.611Z,11.45
2017-10-23T08:58:40.192Z,11.45
2017-10-23T08:59:40.770Z,11.51
2017-10-23T09:00:41.351Z,11.41
2017-10-23T09:01:41.923Z,11.47
2017-10-23T09:02:42.507Z,11.45
2017-10-23T09:03:43.081Z,11.43
2017-10-23T09:04:43.666Z,11.41
2017-10-23T09:05:44.242Z,11.47
2017-10-23T09:06:44.824Z,11.41
2017-10-23T09:07:45.400Z,11.47
2017-10-23T09:08:45.972Z,11.40
2017-10-23T09:09:46.545Z,11.44
2017-10-23T09:10:47.120Z,11.50
2017-10-23T09:11:47.693Z,11.50
2017-10-23T09:12:48.278Z,11.48
2017-10-23T09:13:48.853Z,11.47
2017-10-23T09:14:49.425Z,11.48
2017-10-23T09:15:49.999Z,11.45
2017-10-23T09:16:50.571Z,11.47
2017-10-23T09:17:51.157Z,11.45
2017-10-23T09:18:51.730Z,11.50
2017-10-23T09:19:52.303Z,11.54
2017-10-23T09:20:52.879Z,11.45
2017-10-23T09:21:53.454Z,11.54
2017-10-23T09:22:54.028Z,11.43
2017-10-23T09:23:54.601Z,11.55
2017-10-23T09:24:55.193Z,11.52
2017-10-23T09:25:55.759Z,11.55
2017-10-23T09:26:56.333Z,11.59
2017-10-23T09:27:56.908Z,11.55
2017-10-23T09:28:57.495Z,11.66
2017-10-23T09:29:58.070Z,11.54
2017-10-23T09:30:58.644Z,11.57
2017-10-23T09:31:59.219Z,11.66
2017-10-23T09:32:59.794Z,11.62
2017-10-23T09:34:00.369Z,11.57
2017-10-23T09:35:00.951Z,11.60
2017-10-23T09:36:01.519Z,11.59
2017-10-23T09:37:02.092Z,11.62
2017-10-23T09:38:02.665Z,11.59
2017-10-23T09:39:03.238Z,11.57
2017-10-23T09:40:03.811Z,11.60
2017-10-23T09:41:04.384Z,11.63
2017-10-23T09:42:04.969Z,11.59
2017-10-23T09:43:05.542Z,11.62
2017-10-23T09:44:06.113Z,11.57
2017-10-23T09:45:06.690Z,11.62
2017-10-23T09:46:07.262Z,11.65
2017-10-23T09:47:07.840Z,11.65
2017-10-23T09:48:08.410Z,11.63
2017-10-23T09:49:08.992Z,11.66
2017-10-23T09:50:09.565Z,11.60
2017-10-23T09:51:10.138Z,11.73
2017-10-23T09:52:10.713Z,11.65
2017-10-23T09:53:11.288Z,11.69
2017-10-23T09:54:11.874Z,11.69
2017-10-23T09:55:12.448Z,11.69
2017-10-23T09:56:13.032Z,11.73
2017-10-23T09:57:13.610Z,11.70
2017-10-23T09:58:14.186Z,11.69
2017-10-23T09:59:14.759Z,11.72
2017-10-23T10:00:15.335Z,11.69
2017-10-23T10:01:15.909Z,11.75
2017-10-23T10:02:16.486Z,11.77
2017-10-23T10:03:17.071Z,11.75
2017-10-23T10:04:17.644Z,11.87
2017-10-23T10:05:18.231Z,11.88
2017-10-23T10:06:18.805Z,11.91
2017-10-23T10:07:19.384Z,11.94
2017-10-23T10:08:19.967Z,12.02
2017-10-23T10:09:20.543Z,12.04
2017-10-23T10:10:21.118Z,12.02
2017-10-23T10:11:21.692Z,12.07
2017-10-23T10:12:22.266Z,12.06
2017-10-23T10:13:22.842Z,12.09
2017-10-23T10:14:23.421Z,12.02
2017-10-23T10:15:23.991Z,12.18
2017-10-23T10:16:24.566Z,12.25
2017-10-23T10:17:25.140Z,12.21
2017-10-23T10:18:25.726Z,12.21
2017-10-23T10:19:26.301Z,12.29
2017-10-23T10:20:26.876Z,12.32
2017-10-23T10:21:27.451Z,12.39
2017-10-23T10:22:28.024Z,12.40
2017-10-23T10:23:28.599Z,12.37
2017-10-23T10:24:29.186Z,12.42
2017-10-23T10:25:29.761Z,12.43
2017-10-23T10:26:30.348Z,12.42
2017-10-23T10:27:30.924Z,12.29
2017-10-23T10:28:31.500Z,12.31
2017-10-23T10:29:32.074Z,12.39
2017-10-23T10:30:32.650Z,12.45
2017-10-23T10:31:33.233Z,12.46
2017-10-23T10:32:33.807Z,12.57
2017-10-23T10:33:34.402Z,12.55
2017-10-23T10:34:34.990Z,12.80
2017-10-23T10:35:35.572Z,12.68
2017-10-23T10:36:36.141Z,12.67
2017-10-23T10:37:36.716Z,12.73
2017-10-23T10:38:37.290Z,12.70
2017-10-23T10:39:37.869Z,12.68
2017-10-23T10:40:38.453Z,12.60
2017-10-23T10:41:39.029Z,12.53
2017-10-23T10:42:39.606Z,12.46
2017-10-23T10:43:40.182Z,12.57
2017-10-23T10:44:40.761Z,12.53
2017-10-23T10:45:41.333Z,12.60
2017-10-23T10:46:41.907Z,12.55
2017-10-23T10:47:42.482Z,12.67
2017-10-23T10:48:43.058Z,12.54
2017-10-23T10:49:43.634Z,12.57
2017-10-23T10:50:44.209Z,12.57
2017-10-23T10:51:44.784Z,12.64
2017-10-23T10:52:45.361Z,12.68
2017-10-23T10:53:45.936Z,12.80
2017-10-23T10:54:46.511Z,12.68
2017-10-23T10:55:47.094Z,12.70
2017-10-23T10:56:47.662Z,12.79
2017-10-23T10:57:48.237Z,12.86
2017-10-23T10:58:48.813Z,12.72
2017-10-23T10:59:49.387Z,12.79
2017-10-23T11:00:49.974Z,12.78
2017-10-23T11:01:50.562Z,12.80
2017-10-23T11:02:51.136Z,12.90
2017-10-23T11:03:51.710Z,12.82
2017-10-23T11:04:52.286Z,12.86
2017-10-23T11:05:52.863Z,12.93
2017-10-23T11:06:53.440Z,12.87
2017-10-23T11:07:54.017Z,12.94
2017-10-23T11:08:54.593Z,12.87
2017-10-23T11:09:55.169Z,12.85
2017-10-23T11:10:55.745Z,12.90
2017-10-23T11:11:56.321Z,12.94
2017-10-23T11:12:56.896Z,12.91
2017-10-23T11:13:57.470Z,12.94
2017-10-23T11:14:58.045Z,13.00
2017-10-23T11:15:58.628Z,12.94
2017-10-23T11:16:59.197Z,13.00
2017-10-23T11:17:59.772Z,12.98
2017-10-23T11:19:00.360Z,13.04
2017-10-23T11:20:00.936Z,12.95
2017-10-23T11:21:01.512Z,12.95
2017-10-23T11:22:02.086Z,12.85
2017-10-23T11:23:02.663Z,12.97
2017-10-23T11:24:03.237Z,13.03
2017-10-23T11:25:03.824Z,13.11
2017-10-23T11:26:04.399Z,13.01
2017-10-23T11:27:04.974Z,13.01
2017-10-23T11:28:05.549Z,13.08
2017-10-23T11:29:06.136Z,13.18
2017-10-23T11:30:06.728Z,13.19
2017-10-23T11:31:07.298Z,13.12
2017-10-23T11:32:07.874Z,13.05
2017-10-23T11:33:08.450Z,13.08
2017-10-23T11:34:09.037Z,13.05
2017-10-23T11:35:09.612Z,12.98
2017-10-23T11:36:10.187Z,13.05
2017-10-23T11:37:10.764Z,13.15
2017-10-23T11:38:11.339Z,13.05
2017-10-23T11:39:11.913Z,13.16
2017-10-23T11:40:12.488Z,13.15
2017-10-23T11:41:13.064Z,13.09
2017-10-23T11:42:13.649Z,13.15
2017-10-23T11:43:14.226Z,13.09
2017-10-23T11:44:14.801Z,13.16
2017-10-23T11:45:15.389Z,13.15
2017-10-23T11:46:15.964Z,13.25
2017-10-23T11:47:16.539Z,13.19
2017-10-23T11:48:17.114Z,13.12
2017-10-23T11:49:17.700Z,13.22
2017-10-23T11:50:18.277Z,13.25
2017-10-23T11:51:18.852Z,13.37
2017-10-23T11:52:19.429Z,13.38
2017-10-23T11:53:20.004Z,13.41
2017-10-23T11:54:20.580Z,13.46
2017-10-23T11:55:21.155Z,13.41
2017-10-23T11:56:21.734Z,13.52
2017-10-23T11:57:22.306Z,13.33
2017-10-23T11:58:22.879Z,13.44
2017-10-23T11:59:23.455Z,13.53
2017-10-23T12:00:24.045Z,13.47
2017-10-23T12:01:24.628Z,13.54
2017-10-23T12:02:25.203Z,13.52
2017-10-23T12:03:25.777Z,13.53
2017-10-23T12:04:26.355Z,13.60
2017-10-23T12:05:26.930Z,13.57
2017-10-23T12:06:27.505Z,13.62
2017-10-23T12:07:28.082Z,13.63
2017-10-23T12:08:28.658Z,13.63
2017-10-23T12:09:29.233Z,13.67
2017-10-23T12:10:29.809Z,13.59
2017-10-23T12:11:30.384Z,13.71
2017-10-23T12:12:30.961Z,13.72
2017-10-23T12:13:31.542Z,13.65
2017-10-23T12:14:32.114Z,13.72
2017-10-23T12:15:32.688Z,13.74
2017-10-23T12:16:33.262Z,13.68
2017-10-23T12:17:33.854Z,13.59
2017-10-23T12:18:34.433Z,13.63
2017-10-23T12:19:35.007Z,13.74
2017-10-23T12:20:35.577Z,13.74
2017-10-23T12:21:36.154Z,13.74
2017-10-23T12:22:36.730Z,13.78
2017-10-23T12:23:37.305Z,13.86
2017-10-23T12:24:37.882Z,13.74
2017-10-23T12:25:38.457Z,13.89
2017-10-23T12:26:39.043Z,13.77
2017-10-23T12:27:39.619Z,13.67
2017-10-23T12:28:40.206Z,13.67
2017-10-23T12:29:40.783Z,13.70
2017-10-23T12:30:41.360Z,13.79
2017-10-23T12:31:41.944Z,13.90
2017-10-23T12:32:42.510Z,13.78
2017-10-23T12:33:43.098Z,13.77
2017-10-23T12:34:43.673Z,13.70
2017-10-23T12:35:44.249Z,13.72
2017-10-23T12:36:44.829Z,13.87
2017-10-23T12:37:45.402Z,13.81
2017-10-23T12:38:45.979Z,13.92
2017-10-23T12:39:46.564Z,14.00
2017-10-23T12:40:47.139Z,13.99
2017-10-23T12:41:47.728Z,13.99
2017-10-23T12:42:48.304Z,14.11
2017-10-23T12:43:48.881Z,13.99
2017-10-23T12:44:49.455Z,14.04
2017-10-23T12:45:50.031Z,13.93
2017-10-23T12:46:50.608Z,13.92
2017-10-23T12:47:51.191Z,13.97
2017-10-23T12:48:51.765Z,13.92
2017-10-23T12:49:52.341Z,13.89
2017-10-23T12:50:52.917Z,13.93
2017-10-23T12:51:53.494Z,13.93
2017-10-23T12:52:54.069Z,13.95
2017-10-23T12:53:54.644Z,13.93
2017-10-23T12:54:55.222Z,14.04
2017-10-23T12:55:55.898Z,13.96
2017-10-23T12:56:56.473Z,13.97
2017-10-23T12:57:57.050Z,14.05
2017-10-23T12:58:57.626Z,13.96
2017-10-23T12:59:58.202Z,13.97
2017-10-23T13:00:58.779Z,14.00
2017-10-23T13:01:59.354Z,14.05
2017-10-23T13:02:59.930Z,13.89
2017-10-23T13:04:00.510Z,13.99
2017-10-23T13:05:01.083Z,14.05
2017-10-23T13:06:01.659Z,14.04
2017-10-23T13:07:02.236Z,13.99
2017-10-23T13:08:02.812Z,13.99
2017-10-23T13:09:03.389Z,13.92
2017-10-23T13:10:03.966Z,13.95